Time;durP1;ratioP1;P1;durP2;ratioP2;P2;SDS_P1;SDS_P2;PMS_P1;PMS_P2;Temp;Humidity;BMP_temperature;BMP_pressure;BME280_temperature;BME280_humidity;BME280_pressure;Samples;Min_cycle;Max_cycle;Signal;HPM_P1;HPM_P2
2023/04/17 00:01:56;;;;;;;8.50;1.90;;;8.00;99.90;;;;;;5073337;28;20491;-77
2023/04/17 00:04:24;;;;;;;5.97;3.23;;;8.00;99.90;;;;;;5073269;28;20503;-77
2023/04/17 00:06:52;;;;;;;3.70;1.83;;;8.00;99.90;;;;;;5072942;28;20952;-77
2023/04/17 00:09:19;;;;;;;4.50;1.70;;;8.10;99.90;;;;;;5072907;28;20962;-77
2023/04/17 00:11:46;;;;;;;2.70;1.30;;;8.10;99.90;;;;;;5072877;28;20543;-77
2023/04/17 00:14:13;;;;;;;4.10;3.43;;;8.10;99.90;;;;;;5072822;28;21030;-77
2023/04/17 00:16:39;;;;;;;4.40;2.77;;;8.10;99.90;;;;;;5073176;28;20460;-77
2023/04/17 00:19:07;;;;;;;3.50;1.30;;;8.10;99.90;;;;;;5073161;28;20453;-77
2023/04/17 00:21:34;;;;;;;2.87;1.30;;;8.00;99.90;;;;;;5072769;28;20461;-77
2023/04/17 00:24:01;;;;;;;5.40;2.30;;;7.90;99.90;;;;;;5073110;28;20463;-77
2023/04/17 00:26:28;;;;;;;3.37;1.80;;;8.00;99.90;;;;;;5072755;28;20459;-77
2023/04/17 00:28:55;;;;;;;5.63;3.30;;;8.00;99.90;;;;;;5072753;28;20459;-77
2023/04/17 00:31:21;;;;;;;6.73;2.40;;;8.00;99.90;;;;;;5072894;28;20473;-77
2023/04/17 00:33:48;;;;;;;3.57;2.70;;;7.90;99.90;;;;;;5072624;28;20831;-77
2023/04/17 00:36:16;;;;;;;8.03;2.80;;;7.90;99.90;;;;;;5072975;28;20445;-77
2023/04/17 00:38:43;;;;;;;6.97;2.03;;;7.90;99.90;;;;;;5072934;28;20450;-77
2023/04/17 00:41:10;;;;;;;5.10;1.90;;;7.90;99.90;;;;;;5072900;28;20472;-77
2023/04/17 00:43:38;;;;;;;5.03;2.07;;;8.00;99.90;;;;;;5072977;28;20472;-77
2023/04/17 00:46:06;;;;;;;3.43;2.20;;;8.00;99.90;;;;;;5072607;28;20442;-77
2023/04/17 00:48:33;;;;;;;3.60;2.23;;;8.00;99.90;;;;;;5072601;28;20949;-77
2023/04/17 00:51:02;;;;;;;3.60;2.00;;;8.10;99.90;;;;;;5072775;28;20476;-77
2023/04/17 00:53:30;;;;;;;7.30;2.33;;;8.00;99.90;;;;;;5072664;28;20441;-77
2023/04/17 00:55:59;;;;;;;3.07;2.40;;;8.10;99.90;;;;;;5072806;28;20456;-77
2023/04/17 00:58:27;;;;;;;3.80;2.00;;;8.10;99.90;;;;;;5072480;28;20445;-77
2023/04/17 01:00:53;;;;;;;6.87;2.50;;;8.10;99.90;;;;;;5072455;28;20484;-77
2023/04/17 01:03:21;;;;;;;3.77;1.60;;;8.10;99.90;;;;;;5072428;28;20822;-77
2023/04/17 01:05:50;;;;;;;4.77;2.53;;;8.10;99.90;;;;;;5072675;28;20498;-77
2023/04/17 01:08:17;;;;;;;6.47;2.60;;;8.00;99.90;;;;;;5074331;28;20445;-77
2023/04/17 01:10:45;;;;;;;6.37;3.00;;;8.00;99.90;;;;;;5075941;28;20464;-77
2023/04/17 01:13:12;;;;;;;6.47;2.40;;;8.00;99.90;;;;;;5076250;28;20457;-77
2023/04/17 01:15:39;;;;;;;3.17;2.33;;;8.00;99.90;;;;;;5076181;28;20578;-77
2023/04/17 01:18:06;;;;;;;2.73;2.30;;;8.00;99.90;;;;;;5076122;28;20465;-77
2023/04/17 01:20:33;;;;;;;6.47;2.00;;;8.00;99.90;;;;;;5076054;28;20556;-77
2023/04/17 01:23:01;;;;;;;5.03;2.17;;;8.00;99.90;;;;;;5076079;28;20445;-77
2023/04/17 01:25:29;;;;;;;6.23;2.17;;;8.10;99.90;;;;;;5075688;28;20442;-77
2023/04/17 01:27:56;;;;;;;4.10;2.57;;;8.10;99.90;;;;;;5075712;28;20433;-77
2023/04/17 01:30:23;;;;;;;3.47;3.17;;;8.10;99.90;;;;;;5075726;28;20875;-77
2023/04/17 01:32:49;;;;;;;7.27;2.57;;;8.10;99.90;;;;;;5075906;28;20449;-77
2023/04/17 01:35:16;;;;;;;6.97;2.37;;;8.10;99.90;;;;;;5075731;28;20481;-77
2023/04/17 01:37:43;;;;;;;4.13;1.70;;;8.10;99.90;;;;;;5075497;28;20452;-77
2023/04/17 01:40:10;;;;;;;5.47;2.10;;;8.10;99.90;;;;;;5075413;28;21006;-77
2023/04/17 01:42:38;;;;;;;6.03;2.60;;;8.10;99.90;;;;;;5075694;28;20446;-77
2023/04/17 01:45:06;;;;;;;7.87;3.73;;;8.20;99.90;;;;;;5075647;28;20499;-77
2023/04/17 01:47:33;;;;;;;5.00;2.17;;;8.20;99.90;;;;;;5075573;28;20457;-77
2023/04/17 01:50:00;;;;;;;5.90;2.60;;;8.20;99.90;;;;;;5075193;28;20839;-77
2023/04/17 01:52:26;;;;;;;2.80;1.63;;;8.20;99.90;;;;;;5075267;28;20513;-77
2023/04/17 01:54:53;;;;;;;4.73;2.10;;;8.10;99.90;;;;;;5075071;28;21031;-77
2023/04/17 01:57:20;;;;;;;6.30;2.47;;;8.20;99.90;;;;;;5075440;28;20446;-77
2023/04/17 01:59:48;;;;;;;4.30;2.20;;;8.20;99.90;;;;;;5075064;28;20497;-77
2023/04/17 02:02:15;;;;;;;4.50;1.67;;;8.20;99.90;;;;;;5075324;28;20449;-77
2023/04/17 02:04:41;;;;;;;3.67;2.33;;;8.20;99.90;;;;;;5075243;28;20809;-77
2023/04/17 02:07:08;;;;;;;3.10;1.43;;;8.20;99.90;;;;;;5075244;28;20449;-77
2023/04/17 02:09:35;;;;;;;6.13;1.60;;;8.20;99.90;;;;;;5075154;28;20454;-77
2023/04/17 02:12:01;;;;;;;11.50;1.90;;;8.20;99.90;;;;;;5075141;28;20453;-77
2023/04/17 02:14:29;;;;;;;5.27;2.43;;;8.20;99.90;;;;;;5074743;28;20490;-77
2023/04/17 02:16:58;;;;;;;6.73;3.27;;;8.20;99.90;;;;;;5075026;28;20453;-77
2023/04/17 02:19:25;;;;;;;4.37;2.33;;;8.20;99.90;;;;;;5074814;28;20488;-77
2023/04/17 02:21:51;;;;;;;6.37;2.93;;;8.20;99.90;;;;;;5074881;28;20531;-77
2023/04/17 02:24:18;;;;;;;4.60;2.87;;;8.20;99.90;;;;;;5074901;28;20449;-77
2023/04/17 02:26:45;;;;;;;3.57;1.83;;;8.20;99.90;;;;;;5074893;28;20456;-77
2023/04/17 02:29:11;;;;;;;5.73;1.43;;;8.10;99.90;;;;;;5074498;28;20971;-77
2023/04/17 02:31:40;;;;;;;3.90;2.77;;;8.10;99.90;;;;;;5074701;28;20535;-77
2023/04/17 02:34:08;;;;;;;3.27;1.93;;;8.10;99.90;;;;;;5074632;28;20477;-77
2023/04/17 02:36:35;;;;;;;7.60;2.50;;;8.20;99.90;;;;;;5074928;28;20445;-77
2023/04/17 02:39:02;;;;;;;4.57;1.70;;;8.20;99.90;;;;;;5074614;28;20471;-77
2023/04/17 02:41:29;;;;;;;5.10;2.20;;;8.20;99.90;;;;;;5074208;28;20977;-77
2023/04/17 02:43:57;;;;;;;4.10;2.07;;;8.20;99.90;;;;;;5074476;28;20449;-77
2023/04/17 02:46:24;;;;;;;4.00;1.83;;;8.20;99.90;;;;;;5074436;28;20502;-77
2023/04/17 02:48:51;;;;;;;3.10;1.40;;;8.20;99.90;;;;;;5074122;28;20510;-77
2023/04/17 02:51:19;;;;;;;1.53;1.43;;;8.20;99.90;;;;;;5074332;28;20828;-77
2023/04/17 02:53:47;;;;;;;4.83;2.80;;;8.20;99.90;;;;;;5073996;28;21008;-77
2023/04/17 02:56:14;;;;;;;5.23;2.73;;;8.30;99.90;;;;;;5074192;28;20485;-77
2023/04/17 02:58:43;;;;;;;3.10;1.23;;;8.20;99.90;;;;;;5073918;28;20867;-76
2023/04/17 03:01:10;;;;;;;7.40;3.20;;;8.20;99.90;;;;;;5073634;28;20493;-77
2023/04/17 03:03:40;;;;;;;7.90;2.53;;;8.20;99.90;;;;;;5073937;28;20438;-77
2023/04/17 03:06:07;;;;;;;2.57;1.37;;;8.20;99.90;;;;;;5073820;28;20924;-77
2023/04/17 03:08:37;;;;;;;6.13;2.77;;;8.10;99.90;;;;;;5074005;28;20453;-77
2023/04/17 03:11:04;;;;;;;3.83;2.20;;;8.10;99.90;;;;;;5074194;28;20473;-77
2023/04/17 03:13:34;;;;;;;5.03;2.83;;;8.10;99.90;;;;;;5073895;28;20442;-77
2023/04/17 03:16:01;;;;;;;4.30;2.20;;;8.10;99.90;;;;;;5073805;28;20477;-77
2023/04/17 03:18:27;;;;;;;5.40;2.30;;;8.10;99.90;;;;;;5073846;28;20473;-77
2023/04/17 03:20:54;;;;;;;3.90;1.73;;;8.20;99.90;;;;;;5073759;28;20465;-77
2023/04/17 03:23:21;;;;;;;5.23;3.00;;;8.10;99.90;;;;;;5073568;28;20463;-77
2023/04/17 03:25:49;;;;;;;4.13;2.27;;;8.10;99.90;;;;;;5073761;28;20445;-77
2023/04/17 03:28:17;;;;;;;6.73;2.40;;;8.20;99.90;;;;;;5073691;28;20781;-77
2023/04/17 03:30:44;;;;;;;2.37;1.40;;;8.20;99.90;;;;;;5073203;28;20473;-77
2023/04/17 03:33:10;;;;;;;10.07;2.17;;;8.20;99.90;;;;;;5073665;28;20456;-77
2023/04/17 03:35:37;;;;;;;2.20;1.63;;;8.10;99.90;;;;;;5073265;28;20481;-77
2023/04/17 03:38:04;;;;;;;3.90;2.60;;;8.10;99.90;;;;;;5073581;28;20839;-77
2023/04/17 03:40:31;;;;;;;5.73;2.30;;;8.10;99.90;;;;;;5073519;28;20476;-77
2023/04/17 03:42:59;;;;;;;5.87;2.57;;;8.10;99.90;;;;;;5073556;28;20453;-77
2023/04/17 03:45:25;;;;;;;6.60;2.00;;;8.10;99.90;;;;;;5073474;28;20537;-77
2023/04/17 03:47:52;;;;;;;6.00;1.93;;;8.10;99.90;;;;;;5073464;28;20560;-77
2023/04/17 03:50:19;;;;;;;2.20;2.00;;;8.10;99.90;;;;;;5073415;28;20470;-77
2023/04/17 03:52:46;;;;;;;5.90;4.40;;;8.10;99.90;;;;;;5073372;28;20437;-77
2023/04/17 03:55:12;;;;;;;3.40;1.73;;;8.10;99.90;;;;;;5073333;28;20485;-77
2023/04/17 03:57:39;;;;;;;3.43;2.10;;;8.10;99.90;;;;;;5073417;28;20445;-77
2023/04/17 04:00:09;;;;;;;3.27;2.30;;;8.10;99.90;;;;;;5072962;28;20610;-77
2023/04/17 04:02:36;;;;;;;6.37;2.50;;;8.00;99.90;;;;;;5073362;28;20446;-77
2023/04/17 04:05:02;;;;;;;7.80;2.30;;;8.00;99.90;;;;;;5073299;28;20445;-77
2023/04/17 04:07:29;;;;;;;5.60;1.70;;;8.00;99.90;;;;;;5073409;28;20820;-77
2023/04/17 04:09:56;;;;;;;4.87;1.60;;;8.00;99.90;;;;;;5073170;28;20477;-77
2023/04/17 04:12:22;;;;;;;7.97;2.30;;;8.10;99.90;;;;;;5073247;28;20442;-77
2023/04/17 04:14:49;;;;;;;4.40;2.10;;;8.10;99.90;;;;;;5073104;28;20482;-77
2023/04/17 04:17:17;;;;;;;4.80;2.60;;;8.00;99.90;;;;;;5073212;28;20461;-77
2023/04/17 04:19:45;;;;;;;9.03;2.63;;;8.10;99.90;;;;;;5073125;28;20472;-77
2023/04/17 04:22:13;;;;;;;7.87;4.03;;;8.10;99.90;;;;;;5072766;28;20912;-77
2023/04/17 04:24:40;;;;;;;1.93;1.83;;;8.10;99.90;;;;;;5073140;28;20454;-77
2023/04/17 04:27:07;;;;;;;5.10;2.50;;;8.10;99.90;;;;;;5073114;28;20477;-77
2023/04/17 04:29:33;;;;;;;3.97;2.13;;;8.10;99.90;;;;;;5072662;28;20449;-77
2023/04/17 04:32:01;;;;;;;5.73;2.47;;;8.10;99.90;;;;;;5072714;28;20971;-77
2023/04/17 04:34:29;;;;;;;5.23;2.30;;;8.10;99.90;;;;;;5072722;28;20544;-77
2023/04/17 04:36:56;;;;;;;6.63;1.73;;;8.10;99.90;;;;;;5072904;28;20524;-77
2023/04/17 04:39:23;;;;;;;4.10;1.50;;;8.00;99.90;;;;;;5072730;28;20437;-77
2023/04/17 04:41:50;;;;;;;6.10;3.20;;;8.00;99.90;;;;;;5072899;28;20470;-77
2023/04/17 04:44:17;;;;;;;2.13;1.80;;;8.00;99.90;;;;;;5076283;28;20452;-78
2023/04/17 04:46:44;;;;;;;1.93;1.57;;;8.00;99.90;;;;;;5076753;28;20441;-77
2023/04/17 04:49:11;;;;;;;7.43;2.63;;;8.10;99.90;;;;;;5076365;28;20445;-77
2023/04/17 04:51:39;;;;;;;7.53;1.50;;;8.10;99.90;;;;;;5076587;28;20466;-77
2023/04/17 04:54:06;;;;;;;2.47;1.47;;;8.00;99.90;;;;;;5076625;28;20457;-77
2023/04/17 04:56:33;;;;;;;4.13;1.60;;;8.10;99.90;;;;;;5076511;28;20485;-77
2023/04/17 04:58:59;;;;;;;4.57;2.07;;;8.10;99.90;;;;;;5076510;28;20441;-77
2023/04/17 05:01:28;;;;;;;3.57;1.87;;;8.10;99.90;;;;;;5076095;28;20489;-77
2023/04/17 05:03:55;;;;;;;5.03;2.30;;;8.10;99.90;;;;;;5076435;28;20850;-77
2023/04/17 05:06:22;;;;;;;6.43;2.00;;;8.10;99.90;;;;;;5076074;28;20990;-77
2023/04/17 05:08:50;;;;;;;2.70;1.80;;;8.10;99.90;;;;;;5076323;28;20446;-77
2023/04/17 05:11:16;;;;;;;1.50;0.97;;;8.10;99.90;;;;;;5076183;28;20469;-77
2023/04/17 05:13:43;;;;;;;3.57;2.13;;;8.10;99.90;;;;;;5076270;28;20449;-77
2023/04/17 05:16:10;;;;;;;3.63;1.67;;;8.10;99.90;;;;;;5076147;28;20820;-77
2023/04/17 05:18:36;;;;;;;8.30;2.33;;;8.10;99.90;;;;;;5076178;28;20449;-77
2023/04/17 05:21:03;;;;;;;2.60;1.30;;;8.10;99.90;;;;;;5076013;28;20477;-77
2023/04/17 05:23:30;;;;;;;5.27;3.03;;;8.20;99.90;;;;;;5075797;28;20945;-77
2023/04/17 05:25:58;;;;;;;3.70;1.77;;;8.20;99.90;;;;;;5076038;28;20441;-77
2023/04/17 05:28:26;;;;;;;6.33;2.77;;;8.20;99.90;;;;;;5076007;28;20481;-77
2023/04/17 05:30:52;;;;;;;3.43;1.97;;;8.20;99.90;;;;;;5075537;28;21071;-77
2023/04/17 05:33:19;;;;;;;3.03;1.83;;;8.20;99.90;;;;;;5075865;28;20480;-77
2023/04/17 05:35:46;;;;;;;6.40;2.60;;;8.30;99.90;;;;;;5075516;28;20506;-77
2023/04/17 05:38:12;;;;;;;3.90;2.63;;;8.30;99.90;;;;;;5075825;28;20442;-77
2023/04/17 05:40:39;;;;;;;3.77;1.83;;;8.30;99.90;;;;;;5075298;28;20533;-77
2023/04/17 05:43:09;;;;;;;2.83;1.67;;;8.20;99.90;;;;;;5075736;28;20871;-77
2023/04/17 05:45:36;;;;;;;2.77;2.03;;;8.30;99.90;;;;;;5075322;28;20452;-77
2023/04/17 05:48:03;;;;;;;6.73;2.90;;;8.20;99.90;;;;;;5075629;28;20503;-77
2023/04/17 05:50:29;;;;;;;2.37;1.73;;;8.20;99.90;;;;;;5075410;28;20477;-76
2023/04/17 05:52:56;;;;;;;3.50;1.53;;;8.20;99.90;;;;;;5075315;28;20823;-77
2023/04/17 05:55:23;;;;;;;2.83;1.73;;;8.30;99.90;;;;;;5075092;28;20539;-77
2023/04/17 05:57:50;;;;;;;4.33;2.67;;;8.20;99.90;;;;;;5075105;28;20854;-77
2023/04/17 06:00:21;;;;;;;5.27;1.77;;;8.30;99.90;;;;;;5074996;28;20489;-77
2023/04/17 06:02:48;;;;;;;3.70;2.30;;;8.30;99.90;;;;;;5076124;28;20434;-77
2023/04/17 06:05:15;;;;;;;4.77;2.00;;;8.30;99.90;;;;;;5075445;28;20457;-77
2023/04/17 06:07:42;;;;;;;6.03;3.53;;;8.30;99.90;;;;;;5075286;28;20450;-77
2023/04/17 06:10:09;;;;;;;5.53;3.23;;;8.20;99.90;;;;;;5075096;28;20462;-77
2023/04/17 06:12:36;;;;;;;4.40;2.23;;;8.20;99.90;;;;;;5075209;28;20477;-77
2023/04/17 06:15:04;;;;;;;5.40;2.70;;;8.20;99.90;;;;;;5074768;28;20949;-77
2023/04/17 06:17:32;;;;;;;9.20;3.10;;;8.20;99.90;;;;;;5075081;28;20476;-77
2023/04/17 06:19:58;;;;;;;4.50;2.10;;;8.10;99.90;;;;;;5074861;28;20473;-77
2023/04/17 06:22:25;;;;;;;1.87;1.77;;;8.10;99.90;;;;;;5074996;28;20446;-77
2023/04/17 06:24:52;;;;;;;2.27;1.07;;;8.20;99.90;;;;;;5074625;28;20955;-77
2023/04/17 06:27:18;;;;;;;2.57;1.27;;;8.20;99.90;;;;;;5075062;28;20863;-77
2023/04/17 06:29:45;;;;;;;5.57;2.40;;;8.20;99.90;;;;;;5074833;28;20866;-77
2023/04/17 06:32:12;;;;;;;5.87;3.33;;;8.20;99.90;;;;;;5074440;28;20453;-77
2023/04/17 06:34:40;;;;;;;6.10;2.20;;;8.20;99.90;;;;;;5074416;28;20449;-77
2023/04/17 06:37:06;;;;;;;8.50;3.30;;;8.20;99.90;;;;;;5074264;28;20898;-77
2023/04/17 06:39:33;;;;;;;5.30;2.80;;;8.20;99.90;;;;;;5074545;28;20453;-77
2023/04/17 06:42:00;;;;;;;3.67;1.77;;;8.20;99.90;;;;;;5074564;28;20453;-77
2023/04/17 06:44:27;;;;;;;3.60;1.83;;;8.20;99.90;;;;;;5074223;28;20450;-78
2023/04/17 06:46:53;;;;;;;3.97;2.27;;;8.20;99.90;;;;;;5074510;28;20456;-77
2023/04/17 06:49:20;;;;;;;1.73;1.60;;;8.10;99.90;;;;;;5074431;28;20456;-77
2023/04/17 06:51:48;;;;;;;7.40;1.93;;;8.20;99.90;;;;;;5074312;28;20886;-77
2023/04/17 06:54:15;;;;;;;5.20;2.10;;;8.20;99.90;;;;;;5074205;28;20454;-77
2023/04/17 06:56:42;;;;;;;6.20;2.40;;;8.20;99.90;;;;;;5073985;28;20972;-77
2023/04/17 06:59:09;;;;;;;3.53;2.10;;;8.20;99.90;;;;;;5074170;28;20476;-77
2023/04/17 07:01:36;;;;;;;2.40;1.23;;;8.20;99.90;;;;;;5073678;28;20492;-77
2023/04/17 07:04:04;;;;;;;4.23;1.93;;;8.20;99.90;;;;;;5074162;28;20458;-77
2023/04/17 07:06:32;;;;;;;3.40;1.77;;;8.20;99.90;;;;;;5073480;28;20517;-77
2023/04/17 07:09:00;;;;;;;1.83;1.20;;;8.20;99.90;;;;;;5074589;28;20560;-77
2023/04/17 07:11:27;;;;;;;1.57;1.43;;;8.20;99.90;;;;;;5074209;28;20487;-77
2023/04/17 07:13:54;;;;;;;3.63;1.87;;;8.20;99.90;;;;;;5073676;28;20945;-77
2023/04/17 07:16:21;;;;;;;5.33;1.60;;;8.20;99.90;;;;;;5073868;28;20523;-77
2023/04/17 07:18:48;;;;;;;3.67;1.40;;;8.20;99.90;;;;;;5073528;28;20453;-77
2023/04/17 07:21:15;;;;;;;2.43;1.10;;;8.20;99.90;;;;;;5073817;28;20476;-77
2023/04/17 07:23:41;;;;;;;2.77;1.27;;;8.30;99.90;;;;;;5073527;28;20953;-77
2023/04/17 07:26:10;;;;;;;2.43;1.27;;;8.20;99.90;;;;;;5073770;28;20441;-77
2023/04/17 07:28:37;;;;;;;5.60;1.77;;;8.20;99.90;;;;;;5073705;28;20467;-77
2023/04/17 07:31:07;;;;;;;2.03;1.43;;;8.20;99.90;;;;;;5073628;28;20572;-77
2023/04/17 07:33:34;;;;;;;1.97;1.47;;;8.20;99.90;;;;;;5073639;28;20446;-77
2023/04/17 07:36:01;;;;;;;2.93;1.20;;;8.20;99.90;;;;;;5073288;28;20527;-77
2023/04/17 07:38:30;;;;;;;13.73;2.43;;;8.30;99.90;;;;;;5073599;28;20449;-77
2023/04/17 07:40:56;;;;;;;9.30;1.10;;;8.30;99.90;;;;;;5073524;28;20526;-77
2023/04/17 07:43:25;;;;;;;2.40;1.13;;;8.30;99.90;;;;;;5073254;28;20457;-77
2023/04/17 07:45:51;;;;;;;3.10;2.10;;;8.30;99.90;;;;;;5073489;28;20499;-77
2023/04/17 07:48:18;;;;;;;3.37;1.80;;;8.30;99.90;;;;;;5073459;28;20477;-77
2023/04/17 07:50:45;;;;;;;2.90;2.23;;;8.20;99.90;;;;;;5073094;28;20981;-77
2023/04/17 07:53:12;;;;;;;7.47;3.60;;;8.20;99.90;;;;;;5073414;28;20441;-77
2023/04/17 07:55:38;;;;;;;2.20;1.03;;;8.20;99.90;;;;;;5073263;28;20479;-77
2023/04/17 07:58:05;;;;;;;2.63;1.60;;;8.20;99.90;;;;;;5073314;28;20507;-77
2023/04/17 08:00:33;;;;;;;3.10;2.13;;;8.20;99.90;;;;;;5072933;28;20487;-77
2023/04/17 08:03:02;;;;;;;4.10;1.63;;;8.20;99.90;;;;;;5073334;28;20536;-77
2023/04/17 08:05:29;;;;;;;4.33;2.13;;;8.20;99.90;;;;;;5073294;28;20452;-77
2023/04/17 08:07:56;;;;;;;2.33;1.70;;;8.10;99.90;;;;;;5073286;28;20445;-77
2023/04/17 08:10:23;;;;;;;4.10;1.93;;;8.20;99.90;;;;;;5073192;28;20468;-77
2023/04/17 08:12:50;;;;;;;2.33;1.63;;;8.20;99.90;;;;;;5072931;28;21013;-77
2023/04/17 08:15:16;;;;;;;1.33;1.00;;;8.20;99.90;;;;;;5073271;28;20440;-77
2023/04/17 08:17:44;;;;;;;1.53;1.30;;;8.20;99.90;;;;;;5075738;28;20481;-77
2023/04/17 08:20:11;;;;;;;1.23;1.10;;;8.30;99.90;;;;;;5076958;28;20465;-77
2023/04/17 08:22:41;;;;;;;3.63;1.30;;;8.40;99.90;;;;;;5077248;28;20507;-77
2023/04/17 08:25:09;;;;;;;0.87;0.80;;;8.50;99.90;;;;;;5076848;28;20484;-77
2023/04/17 08:27:36;;;;;;;3.50;0.93;;;8.60;99.90;;;;;;5077138;28;20529;-77
2023/04/17 08:30:03;;;;;;;2.13;1.30;;;8.60;99.90;;;;;;5077069;28;20476;-77
2023/04/17 08:32:32;;;;;;;2.80;1.50;;;8.70;99.90;;;;;;5077007;28;20457;-77
2023/04/17 08:35:00;;;;;;;1.20;1.03;;;8.70;99.90;;;;;;5077010;28;20449;-77
2023/04/17 08:37:29;;;;;;;1.37;1.27;;;8.70;99.90;;;;;;5076557;28;20484;-78
2023/04/17 08:39:56;;;;;;;1.03;1.00;;;8.70;99.90;;;;;;5076587;28;20977;-77
2023/04/17 08:42:24;;;;;;;4.77;1.10;;;8.60;99.90;;;;;;5076908;28;20429;-78
2023/04/17 08:44:51;;;;;;;3.97;1.70;;;8.60;99.90;;;;;;5076836;28;20456;-77
2023/04/17 08:47:18;;;;;;;1.33;0.80;;;8.60;99.90;;;;;;5076807;28;20446;-78
2023/04/17 08:49:46;;;;;;;2.47;1.20;;;8.50;99.90;;;;;;5076362;28;20450;-78
2023/04/17 08:52:14;;;;;;;1.50;1.40;;;8.50;99.90;;;;;;5076628;28;20549;-78
2023/04/17 08:54:41;;;;;;;3.10;0.93;;;8.60;99.90;;;;;;5076630;28;20860;-77
2023/04/17 08:57:07;;;;;;;1.93;1.00;;;8.60;99.90;;;;;;5076482;28;20477;-78
2023/04/17 08:59:34;;;;;;;2.50;1.00;;;8.60;99.90;;;;;;5076176;28;20453;-78
2023/04/17 09:02:02;;;;;;;1.53;0.93;;;8.50;99.90;;;;;;5076593;28;20434;-78
2023/04/17 09:04:39;;;;;;;2.03;1.67;;;8.50;99.90;;;;;;5076398;28;20452;-78
2023/04/17 09:07:06;;;;;;;1.07;0.83;;;8.50;99.90;;;;;;5076443;28;20834;-78
2023/04/17 09:09:51;;;;;;;1.67;1.40;;;8.50;99.90;;;;;;5076248;28;20449;-77
2023/04/17 09:12:19;;;;;;;2.23;0.93;;;8.60;99.90;;;;;;5076311;28;20452;-77
2023/04/17 09:14:45;;;;;;;1.90;1.30;;;8.60;99.90;;;;;;5076296;28;20454;-77
2023/04/17 09:17:14;;;;;;;2.03;1.27;;;8.50;99.90;;;;;;5075832;28;20468;-77
2023/04/17 09:20:03;;;;;;;3.87;1.10;;;8.50;99.90;;;;;;5076075;28;20449;-77
2023/04/17 09:22:30;;;;;;;1.17;1.17;;;8.50;99.90;;;;;;5076123;28;20472;-77
2023/04/17 09:24:58;;;;;;;2.70;1.20;;;8.40;99.90;;;;;;5076069;28;20445;-78
2023/04/17 09:27:26;;;;;;;2.20;0.80;;;8.40;99.90;;;;;;5076020;28;20458;-78
2023/04/17 09:29:58;;;;;;;3.57;1.47;;;8.40;99.90;;;;;;5075247;28;20476;-76
2023/04/17 09:32:25;;;;;;;0.60;0.60;;;8.50;99.90;;;;;;5075886;28;20448;-78
2023/04/17 09:34:52;;;;;;;1.80;1.10;;;8.50;99.90;;;;;;5075886;28;20862;-77
2023/04/17 09:37:19;;;;;;;2.73;1.17;;;8.50;99.90;;;;;;5075505;28;20481;-78
2023/04/17 09:39:58;;;;;;;2.83;1.87;;;8.50;99.90;;;;;;5075794;28;20461;-77
2023/04/17 09:42:26;;;;;;;0.93;0.93;;;8.60;99.90;;;;;;5075581;28;20925;-77
2023/04/17 09:44:53;;;;;;;3.03;1.70;;;8.60;99.90;;;;;;5075775;28;20457;-77
2023/04/17 09:47:21;;;;;;;1.60;1.13;;;8.70;99.90;;;;;;5076113;28;20870;-77
2023/04/17 09:49:51;;;;;;;1.33;1.23;;;8.70;99.90;;;;;;5075629;28;20509;-77
2023/04/17 09:52:19;;;;;;;5.07;1.43;;;8.70;99.90;;;;;;5075623;28;20487;-77
2023/04/17 09:54:48;;;;;;;1.47;0.77;;;8.80;99.90;;;;;;5075608;28;20472;-77
2023/04/17 09:57:17;;;;;;;0.90;0.83;;;8.90;99.90;;;;;;5075357;28;20576;-77
2023/04/17 09:59:47;;;;;;;2.10;1.43;;;9.00;99.90;;;;;;5075223;28;20485;-78
2023/04/17 10:02:15;;;;;;;2.53;1.30;;;9.20;99.90;;;;;;5075405;28;20474;-78
2023/04/17 10:04:42;;;;;;;1.43;0.70;;;9.40;99.90;;;;;;5075391;28;20472;-78
2023/04/17 10:07:11;;;;;;;1.53;1.23;;;9.60;99.90;;;;;;5075408;28;20421;-77
2023/04/17 10:09:40;;;;;;;2.10;1.37;;;9.80;99.90;;;;;;5075201;28;20449;-77
2023/04/17 10:12:12;;;;;;;3.33;1.13;;;9.70;99.90;;;;;;5074915;28;20822;-78
2023/04/17 10:14:45;;;;;;;3.50;2.03;;;9.70;99.90;;;;;;5075295;28;20444;-78
2023/04/17 10:17:25;;;;;;;0.80;0.80;;;9.60;99.90;;;;;;5074715;28;20839;-77
2023/04/17 10:19:52;;;;;;;3.70;1.37;;;9.50;99.90;;;;;;5074894;28;20492;-77
2023/04/17 10:22:32;;;;;;;1.13;0.70;;;9.50;99.90;;;;;;5074954;28;20457;-78
2023/04/17 10:25:24;;;;;;;1.77;0.93;;;9.30;99.90;;;;;;5075002;28;20553;-77
2023/04/17 10:27:53;;;;;;;0.87;0.83;;;9.20;99.90;;;;;;5059928;28;20500;-77
2023/04/17 10:30:22;;;;;;;1.87;0.97;;;9.20;99.90;;;;;;5074501;28;20464;-78
2023/04/17 10:33:20;;;;;;;0.97;0.70;;;9.20;99.90;;;;;;5074699;28;20492;-78
2023/04/17 10:35:47;;;;;;;2.10;1.10;;;9.40;99.90;;;;;;5069000;28;20544;-77
2023/04/17 10:38:15;;;;;;;1.23;0.73;;;9.60;99.90;;;;;;5074294;28;20484;-77
2023/04/17 10:40:43;;;;;;;3.60;1.17;;;9.80;99.90;;;;;;5073171;28;20472;-78
2023/04/17 10:43:12;;;;;;;2.87;0.77;;;10.00;99.90;;;;;;5074266;28;20503;-78
2023/04/17 10:45:55;;;;;;;1.70;1.43;;;10.20;99.90;;;;;;5074509;28;20449;-78
2023/04/17 10:48:25;;;;;;;6.60;1.40;;;10.30;99.90;;;;;;5074229;28;20913;-78
2023/04/17 10:50:52;;;;;;;1.60;1.13;;;10.30;99.90;;;;;;5074229;28;20457;-78
2023/04/17 10:53:43;;;;;;;1.27;0.70;;;10.20;99.90;;;;;;5074045;28;20867;-78
2023/04/17 10:56:11;;;;;;;0.87;0.77;;;10.10;99.90;;;;;;5059028;28;20819;-78
2023/04/17 10:58:54;;;;;;;0.70;0.70;;;9.90;99.90;;;;;;5074208;28;20488;-77
2023/04/17 11:01:25;;;;;;;0.80;0.80;;;9.80;99.90;;;;;;5073740;28;20485;-77
2023/04/17 11:03:52;;;;;;;1.10;0.73;;;9.60;99.90;;;;;;5074239;28;20460;-78
2023/04/17 11:06:19;;;;;;;1.13;0.60;;;9.50;99.90;;;;;;5074174;28;20454;-78
2023/04/17 11:08:47;;;;;;;0.87;0.70;;;9.50;99.90;;;;;;5073711;28;21013;-78
2023/04/17 11:11:16;;;;;;;1.23;0.90;;;9.60;99.90;;;;;;5074003;28;20472;-77
2023/04/17 11:13:45;;;;;;;2.50;1.03;;;9.60;99.90;;;;;;5073922;28;20495;-77
2023/04/17 11:16:13;;;;;;;1.57;0.80;;;9.70;99.90;;;;;;5073976;28;20433;-77
2023/04/17 11:18:41;;;;;;;1.30;0.67;;;9.70;99.90;;;;;;5074433;28;20884;-77
2023/04/17 11:21:11;;;;;;;2.30;0.93;;;9.70;99.90;;;;;;5073679;28;20476;-77
2023/04/17 11:23:38;;;;;;;0.60;0.60;;;9.70;99.90;;;;;;5073684;28;20418;-77
2023/04/17 11:26:05;;;;;;;2.13;1.50;;;9.70;99.90;;;;;;5073468;28;20941;-77
2023/04/17 11:28:32;;;;;;;4.20;1.57;;;9.90;99.90;;;;;;5073722;28;20454;-77
2023/04/17 11:30:59;;;;;;;1.20;1.00;;;10.00;99.90;;;;;;5073333;28;20470;-77
2023/04/17 11:33:27;;;;;;;0.80;0.80;;;10.20;99.90;;;;;;5073706;28;20865;-77
2023/04/17 11:35:55;;;;;;;3.07;1.00;;;10.40;99.90;;;;;;5073608;28;20536;-77
2023/04/17 11:38:22;;;;;;;1.93;1.40;;;10.80;99.90;;;;;;5073483;28;20482;-77
2023/04/17 11:40:52;;;;;;;3.27;0.70;;;11.10;99.90;;;;;;5073341;28;20465;-77
2023/04/17 11:43:20;;;;;;;1.83;1.53;;;11.30;99.90;;;;;;5073533;28;20499;-77
2023/04/17 11:45:48;;;;;;;1.77;1.03;;;11.40;99.90;;;;;;5073544;28;20461;-77
2023/04/17 11:48:18;;;;;;;1.63;0.70;;;11.70;99.90;;;;;;5073491;28;20446;-77
2023/04/17 11:50:45;;;;;;;1.30;1.00;;;12.10;99.90;;;;;;5073481;28;20477;-77
2023/04/17 11:53:17;;;;;;;3.07;1.70;;;12.40;99.90;;;;;;5072800;28;20971;-77
2023/04/17 11:55:45;;;;;;;0.80;0.80;;;12.60;99.90;;;;;;5073488;28;20449;-76
2023/04/17 11:58:13;;;;;;;2.20;0.83;;;12.60;99.90;;;;;;5073941;28;20489;-77
2023/04/17 12:00:41;;;;;;;1.87;1.17;;;12.70;99.90;;;;;;5072848;28;20493;-77
2023/04/17 12:03:33;;;;;;;3.17;1.53;;;12.80;99.90;;;;;;5073225;28;20446;-77
2023/04/17 12:06:00;;;;;;;2.40;0.80;;;13.00;99.90;;;;;;5073072;28;20492;-77
2023/04/17 12:08:29;;;;;;;1.07;0.77;;;12.80;99.90;;;;;;5072981;28;20442;-77
2023/04/17 12:10:56;;;;;;;0.90;0.53;;;12.80;99.90;;;;;;5072904;28;20976;-77
2023/04/17 12:13:23;;;;;;;0.93;0.90;;;12.90;99.90;;;;;;5073228;28;20507;-77
2023/04/17 12:15:50;;;;;;;5.60;1.50;;;13.00;99.90;;;;;;5073201;28;20464;-77
2023/04/17 12:18:17;;;;;;;1.47;1.10;;;13.10;99.90;;;;;;5072892;28;20984;-78
2023/04/17 12:20:44;;;;;;;2.83;1.20;;;13.20;99.90;;;;;;5072820;28;20996;-77
2023/04/17 12:23:10;;;;;;;0.90;0.80;;;13.20;99.90;;;;;;5072860;28;20481;-77
2023/04/17 12:25:39;;;;;;;1.63;0.90;;;13.30;99.90;;;;;;5073124;28;20457;-77
2023/04/17 12:28:05;;;;;;;2.33;2.03;;;13.20;99.90;;;;;;5073123;28;20498;-77
2023/04/17 12:30:34;;;;;;;1.40;1.30;;;13.00;99.90;;;;;;5073053;28;20466;-77
2023/04/17 12:33:01;;;;;;;0.60;0.60;;;12.70;99.90;;;;;;5072748;28;20955;-77
2023/04/17 12:35:28;;;;;;;1.97;1.23;;;12.40;99.90;;;;;;5073040;28;20457;-77
2023/04/17 12:37:55;;;;;;;1.30;1.00;;;12.10;99.90;;;;;;5072957;28;20485;-77
2023/04/17 12:40:23;;;;;;;1.73;0.90;;;11.90;99.90;;;;;;5072917;28;20564;-77
2023/04/17 12:42:51;;;;;;;1.60;1.50;;;11.70;99.90;;;;;;5072952;28;20461;-77
2023/04/17 12:45:18;;;;;;;0.73;0.73;;;11.50;99.90;;;;;;5072978;28;20445;-77
2023/04/17 12:47:45;;;;;;;1.27;1.17;;;11.30;99.90;;;;;;5072936;28;20442;-77
2023/04/17 12:50:12;;;;;;;1.33;0.93;;;11.00;99.90;;;;;;5072489;28;20469;-77
2023/04/17 12:52:40;;;;;;;1.47;1.20;;;10.80;99.90;;;;;;5072888;28;20446;-77
2023/04/17 12:55:08;;;;;;;1.83;1.20;;;10.70;99.90;;;;;;5072821;28;20461;-77
2023/04/17 12:57:35;;;;;;;2.13;1.60;;;10.60;99.90;;;;;;5072523;28;20469;-77
2023/04/17 13:00:06;;;;;;;1.00;0.80;;;10.50;99.90;;;;;;5072480;28;20504;-77